WAT1038 KSNA-KMEM
Flight info
| Callsign | WAT1038 |
|---|---|
| Flight time | N/A |
| Altitude | 37000 |
| Route | PIGGN3 AVRRY LANCY HIDAT DRK KA30Q KA33U KA33Y NOSEW IRW LITTR HOBRK4 |
| Aircraft | B762/H-SDFGIRWY/S |
Departure
| Time | 2026-05-05 16:10 |
|---|---|
| Airport | John Wayne Orange County International Airport (KSNA) |
Arrival
| Time | N/A |
|---|---|
| Airport | Memphis International Airport (KMEM) |
| Time | Latitude | Longitude | Altitude | Speed | Heading |
|---|---|---|---|---|---|
| 2026-05-05 15:50 | 33.67302 | -117.86591 | 57 ft | 0 kts | 118° |
| 2026-05-05 16:02 | 33.67303 | -117.86592 | 57 ft | 1 kts | 118° |
| 2026-05-05 16:02 | 33.67310 | -117.86607 | 57 ft | 2 kts | 117° |
| 2026-05-05 16:02 | 33.67317 | -117.86623 | 57 ft | 2 kts | 118° |
| 2026-05-05 16:03 | 33.67324 | -117.86639 | 57 ft | 2 kts | 118° |
| 2026-05-05 16:03 | 33.67331 | -117.86655 | 57 ft | 2 kts | 119° |
| 2026-05-05 16:03 | 33.67336 | -117.86665 | 57 ft | 2 kts | 115° |
| 2026-05-05 16:03 | 33.67339 | -117.86683 | 57 ft | 2 kts | 81° |
| 2026-05-05 16:04 | 33.67334 | -117.86700 | 57 ft | 2 kts | 53° |
| 2026-05-05 16:04 | 33.67329 | -117.86706 | 57 ft | 1 kts | 38° |
| 2026-05-05 16:04 | 33.67325 | -117.86710 | 57 ft | 0 kts | 41° |
| 2026-05-05 16:06 | 33.67327 | -117.86708 | 57 ft | 3 kts | 40° |
| 2026-05-05 16:06 | 33.67386 | -117.86664 | 57 ft | 15 kts | 28° |
| 2026-05-05 16:06 | 33.67500 | -117.86594 | 55 ft | 19 kts | 27° |
| 2026-05-05 16:06 | 33.67617 | -117.86520 | 54 ft | 18 kts | 28° |
| 2026-05-05 16:07 | 33.67725 | -117.86452 | 53 ft | 16 kts | 27° |
| 2026-05-05 16:07 | 33.67824 | -117.86388 | 52 ft | 15 kts | 28° |
| 2026-05-05 16:07 | 33.67916 | -117.86331 | 51 ft | 14 kts | 27° |
| 2026-05-05 16:07 | 33.67998 | -117.86281 | 50 ft | 12 kts | 22° |
| 2026-05-05 16:08 | 33.68062 | -117.86306 | 50 ft | 9 kts | 308° |
| 2026-05-05 16:08 | 33.68092 | -117.86366 | 50 ft | 7 kts | 297° |
| 2026-05-05 16:08 | 33.68111 | -117.86411 | 50 ft | 4 kts | 298° |
| 2026-05-05 16:08 | 33.68141 | -117.86479 | 50 ft | 11 kts | 296° |
| 2026-05-05 16:09 | 33.68122 | -117.86534 | 51 ft | 11 kts | 214° |
| 2026-05-05 16:09 | 33.67876 | -117.86691 | 53 ft | 73 kts | 207° |
| 2026-05-05 16:09 | 33.67219 | -117.87107 | 61 ft | 141 kts | 208° |
| 2026-05-05 16:09 | 33.66237 | -117.87734 | 526 ft | 166 kts | 208° |
| 2026-05-05 16:10 | 33.65189 | -117.88382 | 1301 ft | 175 kts | 208° |
| 2026-05-05 16:10 | 33.64071 | -117.88941 | 1600 ft | 188 kts | 192° |
| 2026-05-05 16:10 | 33.62692 | -117.89153 | 1822 ft | 207 kts | 188° |
| 2026-05-05 16:10 | 33.61217 | -117.89370 | 2197 ft | 223 kts | 188° |
| 2026-05-05 16:11 | 33.59618 | -117.89593 | 2648 ft | 238 kts | 187° |
| 2026-05-05 16:11 | 33.54529 | -117.88229 | 4364 ft | 271 kts | 154° |
| 2026-05-05 16:12 | 33.52834 | -117.87199 | 5108 ft | 275 kts | 154° |
| 2026-05-05 16:12 | 33.50127 | -117.84055 | 6550 ft | 284 kts | 115° |
| 2026-05-05 16:13 | 33.47738 | -117.77526 | 8762 ft | 292 kts | 96° |
| 2026-05-05 16:13 | 33.47768 | -117.75085 | 9449 ft | 294 kts | 83° |
| 2026-05-05 16:13 | 33.47932 | -117.72635 | 10166 ft | 298 kts | 84° |
| 2026-05-05 16:14 | 33.49131 | -117.67739 | 10942 ft | 326 kts | 58° |
| 2026-05-05 16:14 | 33.51464 | -117.62828 | 11975 ft | 349 kts | 59° |
| 2026-05-05 16:15 | 33.53876 | -117.57745 | 13414 ft | 355 kts | 58° |
| 2026-05-05 16:15 | 33.56334 | -117.52568 | 14748 ft | 363 kts | 58° |
| 2026-05-05 16:16 | 33.58176 | -117.46943 | 16000 ft | 373 kts | 82° |
| 2026-05-05 16:16 | 33.58135 | -117.40612 | 16986 ft | 385 kts | 90° |
| 2026-05-05 16:17 | 33.57984 | -117.34196 | 16966 ft | 377 kts | 91° |
| 2026-05-05 16:17 | 33.57907 | -117.31074 | 16964 ft | 380 kts | 91° |
| 2026-05-05 16:18 | 33.57792 | -117.24699 | 18188 ft | 385 kts | 85° |
| 2026-05-05 16:18 | 33.58279 | -117.21529 | 18811 ft | 386 kts | 74° |
| 2026-05-05 16:18 | 33.59620 | -117.15215 | 19936 ft | 395 kts | 75° |
| 2026-05-05 16:19 | 33.60293 | -117.12040 | 20575 ft | 397 kts | 75° |
| 2026-05-05 16:19 | 33.60985 | -117.08792 | 21126 ft | 401 kts | 75° |
| 2026-05-05 16:19 | 33.62377 | -117.02243 | 22261 ft | 407 kts | 75° |
| 2026-05-05 16:20 | 33.62754 | -116.95458 | 23271 ft | 414 kts | 92° |
| 2026-05-05 16:20 | 33.62604 | -116.88493 | 24202 ft | 422 kts | 92° |
| 2026-05-05 16:21 | 33.62428 | -116.81395 | 25056 ft | 431 kts | 92° |
| 2026-05-05 16:22 | 33.62141 | -116.70435 | 26257 ft | 443 kts | 93° |
| 2026-05-05 16:22 | 33.61939 | -116.62968 | 27033 ft | 451 kts | 93° |
| 2026-05-05 16:23 | 33.61727 | -116.55389 | 27702 ft | 459 kts | 94° |
| 2026-05-05 16:23 | 33.61621 | -116.51581 | 27976 ft | 463 kts | 94° |
| 2026-05-05 16:23 | 33.61395 | -116.43724 | 28592 ft | 471 kts | 94° |
| 2026-05-05 16:24 | 33.61281 | -116.39813 | 29004 ft | 470 kts | 94° |
| 2026-05-05 16:24 | 33.61169 | -116.35928 | 29622 ft | 464 kts | 95° |
| 2026-05-05 16:24 | 33.60959 | -116.28055 | 30190 ft | 471 kts | 95° |
| 2026-05-05 16:25 | 33.60856 | -116.24086 | 30370 ft | 477 kts | 95° |
| 2026-05-05 16:25 | 33.60641 | -116.15933 | 30383 ft | 500 kts | 96° |
| 2026-05-05 16:25 | 33.60531 | -116.11752 | 30395 ft | 511 kts | 95° |
| 2026-05-05 16:26 | 33.61046 | -116.03160 | 30831 ft | 525 kts | 80° |
| 2026-05-05 16:26 | 33.63390 | -115.94743 | 31464 ft | 530 kts | 71° |
| 2026-05-05 16:27 | 33.64681 | -115.90613 | 31728 ft | 532 kts | 71° |
| 2026-05-05 16:27 | 33.65969 | -115.86515 | 32008 ft | 534 kts | 71° |
| 2026-05-05 16:27 | 33.67292 | -115.82310 | 32281 ft | 536 kts | 71° |
| 2026-05-05 16:27 | 33.68608 | -115.78126 | 32522 ft | 538 kts | 71° |
| 2026-05-05 16:28 | 33.69924 | -115.73943 | 32911 ft | 536 kts | 71° |
| 2026-05-05 16:28 | 33.71227 | -115.69800 | 33114 ft | 540 kts | 71° |
| 2026-05-05 16:28 | 33.72554 | -115.65569 | 33472 ft | 541 kts | 71° |
| 2026-05-05 16:28 | 33.73881 | -115.61334 | 33819 ft | 540 kts | 71° |
| 2026-05-05 16:29 | 33.75194 | -115.57156 | 34327 ft | 537 kts | 70° |
| 2026-05-05 16:29 | 33.76694 | -115.52884 | 34781 ft | 535 kts | 68° |
| 2026-05-05 16:29 | 33.78157 | -115.48799 | 35094 ft | 535 kts | 68° |
| 2026-05-05 16:29 | 33.79621 | -115.44692 | 35403 ft | 534 kts | 68° |
| 2026-05-05 16:30 | 33.81084 | -115.40580 | 35754 ft | 532 kts | 68° |
| 2026-05-05 16:30 | 33.82534 | -115.36494 | 36052 ft | 531 kts | 68° |
| 2026-05-05 16:30 | 33.83996 | -115.32370 | 36343 ft | 530 kts | 69° |
| 2026-05-05 16:30 | 33.85445 | -115.28278 | 36497 ft | 532 kts | 69° |
| 2026-05-05 16:31 | 33.86877 | -115.24227 | 36752 ft | 531 kts | 69° |
| 2026-05-05 16:31 | 33.88330 | -115.20107 | 36898 ft | 530 kts | 69° |
| 2026-05-05 16:31 | 33.91196 | -115.11974 | 36910 ft | 529 kts | 69° |
| 2026-05-05 16:32 | 33.94062 | -115.03816 | 36919 ft | 530 kts | 69° |
| 2026-05-05 16:32 | 33.97152 | -114.94998 | 36919 ft | 532 kts | 69° |
| 2026-05-05 16:33 | 34.00022 | -114.86787 | 36906 ft | 534 kts | 70° |
| 2026-05-05 16:33 | 34.02907 | -114.78510 | 36899 ft | 533 kts | 70° |
| 2026-05-05 16:34 | 34.05765 | -114.70289 | 36909 ft | 534 kts | 69° |
| 2026-05-05 16:34 | 34.08648 | -114.61977 | 36902 ft | 536 kts | 70° |
| 2026-05-05 16:35 | 34.11507 | -114.53711 | 36899 ft | 535 kts | 70° |
| 2026-05-05 16:35 | 34.14368 | -114.45417 | 36897 ft | 536 kts | 70° |
| 2026-05-05 16:36 | 34.17224 | -114.37116 | 36904 ft | 537 kts | 70° |
| 2026-05-05 16:36 | 34.20116 | -114.28690 | 36896 ft | 536 kts | 70° |
| 2026-05-05 16:37 | 34.22983 | -114.20312 | 36895 ft | 539 kts | 70° |
| 2026-05-05 16:37 | 34.25837 | -114.11951 | 36890 ft | 539 kts | 70° |
| 2026-05-05 16:38 | 34.28374 | -114.03457 | 36904 ft | 537 kts | 76° |
| 2026-05-05 16:38 | 34.30698 | -113.94873 | 36899 ft | 540 kts | 75° |
| 2026-05-05 16:39 | 34.33028 | -113.86302 | 36916 ft | 537 kts | 75° |
| 2026-05-05 16:39 | 34.35360 | -113.77708 | 36921 ft | 540 kts | 75° |
| 2026-05-05 16:40 | 34.37741 | -113.68908 | 36928 ft | 541 kts | 75° |
| 2026-05-05 16:40 | 34.40050 | -113.60349 | 36940 ft | 543 kts | 75° |
| 2026-05-05 16:41 | 34.42398 | -113.51621 | 36946 ft | 543 kts | 75° |
| 2026-05-05 16:41 | 34.44732 | -113.42912 | 36945 ft | 543 kts | 75° |
| 2026-05-05 16:42 | 34.47053 | -113.34226 | 36960 ft | 545 kts | 76° |
| 2026-05-05 16:42 | 34.49387 | -113.25467 | 36950 ft | 547 kts | 76° |
| 2026-05-05 16:43 | 34.50549 | -113.21098 | 36817 ft | 545 kts | 76° |
| 2026-05-05 16:43 | 34.51703 | -113.16740 | 36928 ft | 544 kts | 77° |
| 2026-05-05 16:43 | 34.54026 | -113.07961 | 36962 ft | 549 kts | 76° |
| 2026-05-05 16:44 | 34.56348 | -112.99167 | 36958 ft | 549 kts | 76° |
| 2026-05-05 16:44 | 34.58736 | -112.90411 | 36965 ft | 549 kts | 76° |
| 2026-05-05 16:45 | 34.61123 | -112.81693 | 36992 ft | 548 kts | 76° |
| 2026-05-05 16:45 | 34.63521 | -112.72907 | 36964 ft | 552 kts | 76° |
| 2026-05-05 16:46 | 34.65933 | -112.64037 | 36971 ft | 552 kts | 76° |
| 2026-05-05 16:46 | 34.68317 | -112.55243 | 37011 ft | 549 kts | 75° |
| 2026-05-05 16:47 | 34.70396 | -112.46401 | 36985 ft | 546 kts | 85° |
| 2026-05-05 16:47 | 34.71631 | -112.37293 | 37005 ft | 546 kts | 86° |
| 2026-05-05 16:48 | 34.72825 | -112.28207 | 36984 ft | 544 kts | 88° |
| 2026-05-05 16:48 | 34.73997 | -112.19123 | 36967 ft | 545 kts | 88° |
| 2026-05-05 16:49 | 34.75159 | -112.10020 | 36965 ft | 546 kts | 88° |
| 2026-05-05 16:49 | 34.76315 | -112.00913 | 37008 ft | 547 kts | 88° |
| 2026-05-05 16:50 | 34.77461 | -111.91816 | 36999 ft | 549 kts | 87° |
| 2026-05-05 16:50 | 34.78608 | -111.82673 | 36999 ft | 550 kts | 87° |
| 2026-05-05 16:51 | 34.79753 | -111.73489 | 37019 ft | 547 kts | 88° |
| 2026-05-05 16:51 | 34.80885 | -111.64318 | 37019 ft | 552 kts | 88° |
| 2026-05-05 16:52 | 34.82011 | -111.55162 | 37002 ft | 554 kts | 88° |
| 2026-05-05 16:52 | 34.83141 | -111.45935 | 36987 ft | 553 kts | 88° |
| 2026-05-05 16:53 | 34.84261 | -111.36701 | 37000 ft | 553 kts | 88° |
| 2026-05-05 16:53 | 34.85382 | -111.27405 | 36998 ft | 556 kts | 89° |
| 2026-05-05 16:54 | 34.86493 | -111.18145 | 36997 ft | 553 kts | 88° |
| 2026-05-05 16:54 | 34.87597 | -111.08861 | 36977 ft | 555 kts | 89° |
| 2026-05-05 16:55 | 34.88684 | -110.99644 | 36989 ft | 557 kts | 88° |
| 2026-05-05 16:55 | 34.89783 | -110.90320 | 36996 ft | 556 kts | 89° |
| 2026-05-05 16:56 | 34.90868 | -110.80993 | 37015 ft | 558 kts | 88° |
| 2026-05-05 16:56 | 34.91951 | -110.71647 | 37008 ft | 560 kts | 89° |
| 2026-05-05 16:57 | 34.93026 | -110.62315 | 37017 ft | 557 kts | 89° |
| 2026-05-05 16:57 | 34.94085 | -110.53043 | 37014 ft | 557 kts | 89° |
| 2026-05-05 16:58 | 34.95145 | -110.43687 | 37009 ft | 561 kts | 88° |
| 2026-05-05 16:58 | 34.96207 | -110.34264 | 37013 ft | 560 kts | 89° |
| 2026-05-05 16:59 | 34.97257 | -110.24892 | 37000 ft | 560 kts | 89° |
| 2026-05-05 16:59 | 34.98294 | -110.15548 | 37007 ft | 560 kts | 89° |
| 2026-05-05 17:00 | 34.99331 | -110.06146 | 37003 ft | 561 kts | 89° |
| 2026-05-05 17:00 | 35.00450 | -109.96725 | 37001 ft | 565 kts | 86° |
| 2026-05-05 17:01 | 35.01793 | -109.87348 | 37007 ft | 566 kts | 86° |
| 2026-05-05 17:01 | 35.03126 | -109.77906 | 36995 ft | 566 kts | 86° |
| 2026-05-05 17:02 | 35.04452 | -109.68439 | 36998 ft | 565 kts | 86° |
| 2026-05-05 17:02 | 35.05761 | -109.59026 | 36997 ft | 566 kts | 86° |
| 2026-05-05 17:03 | 35.07061 | -109.49637 | 36995 ft | 565 kts | 86° |
| 2026-05-05 17:03 | 35.08359 | -109.40187 | 37005 ft | 568 kts | 86° |
| 2026-05-05 17:04 | 35.09656 | -109.30718 | 36979 ft | 564 kts | 87° |
| 2026-05-05 17:04 | 35.10906 | -109.21515 | 36976 ft | 563 kts | 87° |
| 2026-05-05 17:05 | 35.12182 | -109.12045 | 36984 ft | 566 kts | 86° |
| 2026-05-05 17:05 | 35.13450 | -109.02612 | 36997 ft | 565 kts | 86° |
| 2026-05-05 17:06 | 35.14710 | -108.93175 | 37012 ft | 565 kts | 87° |
| 2026-05-05 17:06 | 35.15957 | -108.83763 | 37017 ft | 564 kts | 87° |
| 2026-05-05 17:07 | 35.17209 | -108.74263 | 37024 ft | 565 kts | 86° |
| 2026-05-05 17:07 | 35.18447 | -108.64806 | 37032 ft | 567 kts | 86° |
| 2026-05-05 17:08 | 35.19677 | -108.55356 | 37037 ft | 566 kts | 86° |
| 2026-05-05 17:08 | 35.20904 | -108.45882 | 37033 ft | 566 kts | 86° |
| 2026-05-05 17:09 | 35.22121 | -108.36402 | 37047 ft | 566 kts | 86° |
| 2026-05-05 17:09 | 35.23339 | -108.26865 | 37034 ft | 568 kts | 87° |
| 2026-05-05 17:10 | 35.24540 | -108.17400 | 37027 ft | 567 kts | 87° |
| 2026-05-05 17:10 | 35.25742 | -108.07863 | 37026 ft | 566 kts | 87° |
| 2026-05-05 17:11 | 35.26931 | -107.98374 | 37027 ft | 567 kts | 87° |
| 2026-05-05 17:11 | 35.28115 | -107.88862 | 37030 ft | 567 kts | 87° |
| 2026-05-05 17:12 | 35.29289 | -107.79343 | 37028 ft | 569 kts | 87° |
| 2026-05-05 17:12 | 35.30465 | -107.69778 | 37026 ft | 568 kts | 87° |
| 2026-05-05 17:13 | 35.31620 | -107.60308 | 37024 ft | 568 kts | 87° |
| 2026-05-05 17:13 | 35.32781 | -107.50717 | 37029 ft | 569 kts | 86° |
| 2026-05-05 17:14 | 35.33929 | -107.41190 | 37025 ft | 569 kts | 87° |
| 2026-05-05 17:14 | 35.35074 | -107.31598 | 37001 ft | 570 kts | 88° |
| 2026-05-05 17:15 | 35.36209 | -107.22038 | 37004 ft | 570 kts | 87° |
| 2026-05-05 17:15 | 35.37338 | -107.12465 | 37006 ft | 570 kts | 88° |
| 2026-05-05 17:16 | 35.38461 | -107.02863 | 37018 ft | 571 kts | 87° |
| 2026-05-05 17:16 | 35.39580 | -106.93230 | 37016 ft | 572 kts | 87° |
| 2026-05-05 17:17 | 35.40685 | -106.83647 | 37015 ft | 570 kts | 87° |
| 2026-05-05 17:17 | 35.41783 | -106.74074 | 37022 ft | 571 kts | 87° |
| 2026-05-05 17:18 | 35.42861 | -106.64593 | 37028 ft | 571 kts | 87° |
| 2026-05-05 17:19 | 35.44929 | -106.46212 | 37022 ft | 571 kts | 87° |
| 2026-05-05 17:19 | 35.45987 | -106.36723 | 37014 ft | 572 kts | 87° |
| 2026-05-05 17:20 | 35.46995 | -106.27614 | 36990 ft | 568 kts | 88° |
| 2026-05-05 17:20 | 35.48027 | -106.18205 | 36987 ft | 571 kts | 88° |
| 2026-05-05 17:21 | 35.49060 | -106.08710 | 36991 ft | 572 kts | 87° |
| 2026-05-05 17:22 | 35.50063 | -105.94471 | 37005 ft | 565 kts | 95° |
| 2026-05-05 17:22 | 35.50232 | -105.84901 | 36996 ft | 566 kts | 94° |
| 2026-05-05 17:23 | 35.50382 | -105.75243 | 37008 ft | 566 kts | 95° |
| 2026-05-05 17:23 | 35.50519 | -105.65655 | 37014 ft | 567 kts | 95° |
| 2026-05-05 17:24 | 35.50647 | -105.55989 | 37024 ft | 568 kts | 95° |
| 2026-05-05 17:24 | 35.50769 | -105.46325 | 37026 ft | 567 kts | 95° |
| 2026-05-05 17:25 | 35.50880 | -105.36680 | 37021 ft | 568 kts | 95° |
| 2026-05-05 17:25 | 35.50985 | -105.26968 | 36995 ft | 569 kts | 95° |
| 2026-05-05 17:26 | 35.51083 | -105.17271 | 36996 ft | 570 kts | 96° |
| 2026-05-05 17:26 | 35.51174 | -105.07626 | 36999 ft | 567 kts | 96° |
| 2026-05-05 17:27 | 35.51255 | -104.98164 | 37009 ft | 567 kts | 95° |
| 2026-05-05 17:27 | 35.51329 | -104.88517 | 37005 ft | 568 kts | 96° |
| 2026-05-05 17:28 | 35.51391 | -104.78852 | 37002 ft | 570 kts | 96° |
| 2026-05-05 17:28 | 35.51455 | -104.69106 | 37001 ft | 569 kts | 96° |
| 2026-05-05 17:29 | 35.51503 | -104.59614 | 37000 ft | 568 kts | 96° |
| 2026-05-05 17:29 | 35.51547 | -104.49873 | 36996 ft | 573 kts | 95° |
| 2026-05-05 17:30 | 35.51585 | -104.40138 | 36983 ft | 572 kts | 95° |
| 2026-05-05 17:30 | 35.51612 | -104.30346 | 36947 ft | 575 kts | 97° |
| 2026-05-05 17:31 | 35.51635 | -104.20628 | 36948 ft | 572 kts | 95° |
| 2026-05-05 17:31 | 35.51647 | -104.10865 | 36960 ft | 573 kts | 96° |
| 2026-05-05 17:32 | 35.51648 | -104.01149 | 36950 ft | 572 kts | 95° |
| 2026-05-05 17:32 | 35.51645 | -103.91409 | 36950 ft | 575 kts | 96° |
| 2026-05-05 17:33 | 35.51635 | -103.81594 | 36959 ft | 575 kts | 96° |
| 2026-05-05 17:33 | 35.51616 | -103.71787 | 36961 ft | 577 kts | 95° |
| 2026-05-05 17:34 | 35.51592 | -103.61989 | 36957 ft | 576 kts | 95° |
| 2026-05-05 17:34 | 35.51555 | -103.52213 | 36958 ft | 576 kts | 95° |
| 2026-05-05 17:35 | 35.51512 | -103.42410 | 36954 ft | 577 kts | 95° |
| 2026-05-05 17:35 | 35.51462 | -103.32585 | 36940 ft | 577 kts | 96° |
| 2026-05-05 17:36 | 35.51405 | -103.22742 | 36935 ft | 573 kts | 96° |
| 2026-05-05 17:36 | 35.51336 | -103.12992 | 36937 ft | 577 kts | 96° |
| 2026-05-05 17:37 | 35.51265 | -103.03212 | 36931 ft | 574 kts | 96° |
| 2026-05-05 17:37 | 35.51181 | -102.93407 | 36932 ft | 578 kts | 96° |
| 2026-05-05 17:38 | 35.51092 | -102.83617 | 36927 ft | 575 kts | 95° |
| 2026-05-05 17:38 | 35.50992 | -102.73798 | 36929 ft | 578 kts | 96° |
| 2026-05-05 17:39 | 35.50885 | -102.63961 | 36933 ft | 578 kts | 96° |
| 2026-05-05 17:39 | 35.50773 | -102.54150 | 36934 ft | 578 kts | 96° |
| 2026-05-05 17:40 | 35.50648 | -102.44310 | 36936 ft | 578 kts | 95° |
| 2026-05-05 17:40 | 35.50518 | -102.34463 | 36939 ft | 580 kts | 96° |
| 2026-05-05 17:41 | 35.50381 | -102.24605 | 36926 ft | 577 kts | 97° |
| 2026-05-05 17:41 | 35.50233 | -102.14816 | 36918 ft | 579 kts | 96° |
| 2026-05-05 17:42 | 35.50081 | -102.04963 | 36927 ft | 581 kts | 96° |
| 2026-05-05 17:42 | 35.50090 | -101.95094 | 36930 ft | 580 kts | 92° |
| 2026-05-05 17:43 | 35.50328 | -101.85242 | 36936 ft | 581 kts | 92° |
| 2026-05-05 17:43 | 35.50540 | -101.75356 | 36932 ft | 583 kts | 92° |
| 2026-05-05 17:44 | 35.50744 | -101.65447 | 36925 ft | 583 kts | 92° |
| 2026-05-05 17:44 | 35.50941 | -101.55482 | 36923 ft | 581 kts | 92° |
| 2026-05-05 17:45 | 35.51126 | -101.45567 | 36925 ft | 584 kts | 92° |
| 2026-05-05 17:45 | 35.51307 | -101.35647 | 36921 ft | 583 kts | 92° |
| 2026-05-05 17:46 | 35.51479 | -101.25716 | 36897 ft | 583 kts | 93° |
| 2026-05-05 17:46 | 35.51638 | -101.15977 | 36900 ft | 583 kts | 92° |
| 2026-05-05 17:47 | 35.51792 | -101.06197 | 36906 ft | 583 kts | 94° |
| 2026-05-05 17:47 | 35.51838 | -100.96280 | 36925 ft | 581 kts | 97° |
| 2026-05-05 17:48 | 35.51462 | -100.86390 | 36914 ft | 582 kts | 97° |
| 2026-05-05 17:48 | 35.51112 | -100.76513 | 36901 ft | 582 kts | 97° |
| 2026-05-05 17:49 | 35.50756 | -100.66629 | 36900 ft | 583 kts | 97° |
| 2026-05-05 17:49 | 35.50393 | -100.56717 | 36890 ft | 583 kts | 96° |
| 2026-05-05 17:50 | 35.50024 | -100.46783 | 36895 ft | 584 kts | 96° |
| 2026-05-05 17:50 | 35.49649 | -100.36942 | 36892 ft | 582 kts | 97° |
| 2026-05-05 17:51 | 35.49263 | -100.27032 | 36868 ft | 583 kts | 97° |
| 2026-05-05 17:51 | 35.48869 | -100.17078 | 36858 ft | 583 kts | 97° |
| 2026-05-05 17:52 | 35.48466 | -100.07162 | 36861 ft | 584 kts | 97° |
| 2026-05-05 17:52 | 35.48056 | -99.97266 | 36859 ft | 584 kts | 97° |
| 2026-05-05 17:53 | 35.47639 | -99.87374 | 36855 ft | 582 kts | 97° |
| 2026-05-05 17:53 | 35.47213 | -99.77480 | 36858 ft | 583 kts | 97° |
| 2026-05-05 17:54 | 35.46776 | -99.67552 | 36857 ft | 584 kts | 97° |
| 2026-05-05 17:54 | 35.46330 | -99.57564 | 36859 ft | 585 kts | 96° |
| 2026-05-05 17:55 | 35.45879 | -99.47657 | 36876 ft | 585 kts | 96° |
| 2026-05-05 17:55 | 35.45423 | -99.37774 | 36883 ft | 584 kts | 97° |
| 2026-05-05 17:56 | 35.44957 | -99.27863 | 36853 ft | 582 kts | 97° |
| 2026-05-05 17:56 | 35.44489 | -99.18175 | 36855 ft | 583 kts | 97° |
| 2026-05-05 17:57 | 35.44008 | -99.08277 | 36853 ft | 582 kts | 96° |
| 2026-05-05 17:57 | 35.43516 | -98.98385 | 36862 ft | 582 kts | 97° |
| 2026-05-05 17:58 | 35.43053 | -98.89181 | 36864 ft | 584 kts | 97° |
| 2026-05-05 17:58 | 35.42581 | -98.79961 | 36855 ft | 583 kts | 96° |
| 2026-05-05 17:59 | 35.42110 | -98.70881 | 36856 ft | 582 kts | 97° |
| 2026-05-05 17:59 | 35.41605 | -98.61298 | 36842 ft | 585 kts | 96° |
| 2026-05-05 18:00 | 35.41090 | -98.51653 | 36837 ft | 583 kts | 97° |
| 2026-05-05 18:00 | 35.40578 | -98.42256 | 36828 ft | 585 kts | 96° |
| 2026-05-05 18:01 | 35.40044 | -98.32523 | 36806 ft | 585 kts | 96° |
| 2026-05-05 18:01 | 35.39500 | -98.22804 | 36800 ft | 583 kts | 97° |
| 2026-05-05 18:02 | 35.38954 | -98.13193 | 36804 ft | 585 kts | 96° |
| 2026-05-05 18:02 | 35.38417 | -98.03808 | 36797 ft | 584 kts | 96° |
| 2026-05-05 18:03 | 35.37886 | -97.94709 | 36801 ft | 585 kts | 96° |
| 2026-05-05 18:03 | 35.37350 | -97.85636 | 36788 ft | 587 kts | 97° |
| 2026-05-05 18:04 | 35.36796 | -97.76376 | 36781 ft | 586 kts | 96° |
| 2026-05-05 18:04 | 35.36236 | -97.67094 | 36783 ft | 587 kts | 96° |
| 2026-05-05 18:05 | 35.35538 | -97.57507 | 36770 ft | 584 kts | 100° |
| 2026-05-05 18:05 | 35.34560 | -97.48239 | 36769 ft | 586 kts | 100° |
| 2026-05-05 18:06 | 35.33582 | -97.38849 | 36771 ft | 585 kts | 99° |
| 2026-05-05 18:06 | 35.32818 | -97.31545 | 36736 ft | 585 kts | 101° |